createdAt,value
2023-02-28T00:01:51.541Z,102154.81
2023-02-28T00:05:02.254Z,102166.91
2023-02-28T00:08:04.811Z,102170.13
2023-02-28T00:11:10.883Z,102158.28
2023-02-28T00:14:13.382Z,102162.34
2023-02-28T00:17:17.370Z,102165.13
2023-02-28T00:20:20.417Z,102164.84
2023-02-28T00:23:22.850Z,102171.13
2023-02-28T00:26:25.269Z,102166.50
2023-02-28T00:29:27.619Z,102169.19
2023-02-28T00:32:30.713Z,102167.50
2023-02-28T00:35:33.127Z,102172.13
2023-02-28T00:38:35.705Z,102170.97
2023-02-28T00:41:38.057Z,102170.41
2023-02-28T00:44:40.441Z,102151.47
2023-02-28T00:47:42.873Z,102163.13
2023-02-28T00:50:45.387Z,102160.19
2023-02-28T00:53:47.740Z,102166.13
2023-02-28T00:56:50.317Z,102175.94
2023-02-28T00:59:55.273Z,102159.47
2023-02-28T01:02:57.987Z,102158.00
2023-02-28T01:06:00.674Z,102163.22
2023-02-28T01:09:04.092Z,102167.09
2023-02-28T01:12:06.870Z,102167.47
2023-02-28T01:15:12.481Z,102159.66
2023-02-28T01:18:14.960Z,102161.91
2023-02-28T01:21:19.918Z,102168.16
2023-02-28T01:24:22.304Z,102165.75
2023-02-28T01:27:24.819Z,102170.47
2023-02-28T01:30:28.581Z,102169.03
2023-02-28T01:33:31.387Z,102152.19
2023-02-28T01:36:35.520Z,102151.31
2023-02-28T01:39:37.886Z,102168.19
2023-02-28T01:42:40.229Z,102167.38
2023-02-28T01:45:43.053Z,102163.25
2023-02-28T01:49:05.685Z,102163.72
2023-02-28T01:52:08.507Z,102170.50
2023-02-28T01:55:11.992Z,102169.50
2023-02-28T01:58:14.795Z,102158.91
2023-02-28T02:01:22.648Z,102157.38
2023-02-28T02:04:28.710Z,102158.63
2023-02-28T02:07:34.180Z,102127.19
2023-02-28T02:10:45.799Z,102161.22
2023-02-28T02:14:04.639Z,102163.16
2023-02-28T02:17:24.847Z,102165.84
2023-02-28T02:20:53.613Z,102172.84
2023-02-28T02:24:20.645Z,102173.81
2023-02-28T02:27:58.629Z,102171.44
2023-02-28T02:31:16.020Z,102171.16
2023-02-28T02:34:44.337Z,102168.13
2023-02-28T02:38:03.894Z,102163.75
2023-02-28T02:41:29.498Z,102164.13
2023-02-28T02:44:51.850Z,102168.22
2023-02-28T02:47:55.158Z,102170.31
2023-02-28T02:51:01.995Z,102181.09
2023-02-28T02:54:12.016Z,102163.88
2023-02-28T02:57:21.832Z,102154.19
2023-02-28T03:00:32.197Z,102159.66
2023-02-28T03:03:35.018Z,102168.00
2023-02-28T03:06:38.180Z,102173.22
2023-02-28T03:09:40.782Z,102158.00
2023-02-28T03:12:52.218Z,102176.59
2023-02-28T03:16:07.543Z,102183.63
2023-02-28T03:19:28.328Z,102189.91
2023-02-28T03:22:36.130Z,102192.34
2023-02-28T03:25:47.630Z,102183.16
2023-02-28T03:28:58.296Z,102182.25
2023-02-28T03:32:22.703Z,102185.25
2023-02-28T03:35:28.670Z,102180.66
2023-02-28T03:38:47.764Z,102185.81
2023-02-28T03:41:54.701Z,102191.94
2023-02-28T03:45:02.825Z,102187.81
2023-02-28T03:48:17.965Z,102185.16
2023-02-28T03:51:23.153Z,102159.06
2023-02-28T03:54:29.968Z,102187.09
2023-02-28T03:57:42.423Z,102187.09
2023-02-28T04:00:48.624Z,102182.50
2023-02-28T04:03:51.258Z,102188.34
2023-02-28T04:07:03.265Z,102190.03
2023-02-28T04:10:06.660Z,102183.28
2023-02-28T04:13:09.026Z,102193.69
2023-02-28T04:16:18.830Z,102192.22
2023-02-28T04:19:27.021Z,102200.03
2023-02-28T04:22:29.253Z,102201.03
2023-02-28T04:25:31.665Z,102203.16
2023-02-28T04:28:34.912Z,102200.19
2023-02-28T04:31:37.451Z,102199.78
2023-02-28T04:34:40.043Z,102198.94
2023-02-28T04:37:42.358Z,102201.41
2023-02-28T04:40:44.772Z,102163.22
2023-02-28T04:43:47.128Z,102191.78
2023-02-28T04:46:50.325Z,102188.56
2023-02-28T04:49:52.726Z,102194.88
2023-02-28T04:52:55.763Z,102185.63
2023-02-28T04:55:59.293Z,102189.28
2023-02-28T04:59:01.583Z,102202.31
2023-02-28T05:02:08.116Z,102186.06
2023-02-28T05:05:10.801Z,102206.25
2023-02-28T05:08:13.201Z,102204.84
2023-02-28T05:11:27.602Z,102182.47
2023-02-28T05:14:30.288Z,102196.97
2023-02-28T05:17:32.963Z,102196.50
2023-02-28T05:20:35.249Z,102197.66
2023-02-28T05:23:37.712Z,102185.34
2023-02-28T05:26:42.558Z,102190.53
2023-02-28T05:29:45.040Z,102180.59
2023-02-28T05:32:52.085Z,102187.31
2023-02-28T05:35:54.626Z,102191.88
2023-02-28T05:38:57.020Z,102193.53
2023-02-28T05:41:59.436Z,102195.72
2023-02-28T05:45:01.918Z,102185.88
2023-02-28T05:48:04.595Z,102199.22
2023-02-28T05:51:07.956Z,102194.78
2023-02-28T05:54:13.513Z,102187.03
2023-02-28T05:57:24.310Z,102198.00
2023-02-28T06:00:27.428Z,102201.78
2023-02-28T06:03:29.900Z,102203.22
2023-02-28T06:06:32.523Z,102204.06
2023-02-28T06:09:35.016Z,102214.44
2023-02-28T06:12:37.474Z,102221.44
2023-02-28T06:15:40.268Z,102227.00
2023-02-28T06:18:42.957Z,102229.41
2023-02-28T06:21:45.405Z,102214.16
2023-02-28T06:24:47.692Z,102229.69
2023-02-28T06:27:50.324Z,102236.31
2023-02-28T06:30:53.510Z,102244.19
2023-02-28T06:33:57.150Z,102240.47
2023-02-28T06:37:03.231Z,102245.28
2023-02-28T06:40:07.992Z,102241.78
2023-02-28T06:43:10.352Z,102249.84
2023-02-28T06:46:15.792Z,102250.44
2023-02-28T06:49:18.271Z,102251.38
2023-02-28T06:52:20.658Z,102233.44
2023-02-28T06:55:23.051Z,102270.00
2023-02-28T06:58:25.566Z,102274.59
2023-02-28T07:01:29.438Z,102265.69
2023-02-28T07:04:32.194Z,102277.97
2023-02-28T07:07:35.277Z,102281.66
2023-02-28T07:10:41.051Z,102275.81
2023-02-28T07:13:43.448Z,102257.97
2023-02-28T07:16:46.663Z,102282.63
2023-02-28T07:19:49.117Z,102274.63
2023-02-28T07:22:57.343Z,102260.56
2023-02-28T07:25:59.748Z,102271.50
2023-02-28T07:29:03.288Z,102263.91
2023-02-28T07:32:06.035Z,102265.44
2023-02-28T07:35:08.968Z,102247.25
2023-02-28T07:38:11.684Z,102251.16
2023-02-28T07:41:14.166Z,102258.88
2023-02-28T07:44:16.754Z,102240.59
2023-02-28T07:47:19.111Z,102246.19
2023-02-28T07:50:21.608Z,102251.16
2023-02-28T07:53:24.104Z,102257.34
2023-02-28T07:56:26.582Z,102251.88
2023-02-28T07:59:31.254Z,102249.28
2023-02-28T08:02:35.012Z,102240.06
2023-02-28T08:05:41.296Z,102256.66
2023-02-28T08:08:43.706Z,102242.59
2023-02-28T08:11:46.084Z,102228.19
2023-02-28T08:14:48.383Z,102231.47
2023-02-28T08:17:50.656Z,102236.03
2023-02-28T08:20:53.054Z,102222.69
2023-02-28T08:23:55.475Z,102236.09
2023-02-28T08:26:58.122Z,102231.09
2023-02-28T08:30:00.443Z,102224.25
2023-02-28T08:33:03.040Z,102227.28
2023-02-28T08:36:05.848Z,102223.44
2023-02-28T08:39:08.819Z,102217.34
2023-02-28T08:42:11.450Z,102213.88
2023-02-28T08:45:15.260Z,102218.72
2023-02-28T08:48:19.578Z,102225.00
2023-02-28T08:51:27.784Z,102214.47
2023-02-28T08:54:32.506Z,102226.00
2023-02-28T08:57:34.896Z,102225.66
2023-02-28T09:00:37.834Z,102222.22
2023-02-28T09:03:42.541Z,102232.03
2023-02-28T09:06:45.576Z,102228.34
2023-02-28T09:09:57.912Z,102234.22
2023-02-28T09:13:00.306Z,102233.38
2023-02-28T09:16:04.235Z,102244.81
2023-02-28T09:19:06.465Z,102233.69
2023-02-28T09:22:08.840Z,102234.84
2023-02-28T09:25:11.179Z,102233.63
2023-02-28T09:28:13.493Z,102242.72
2023-02-28T09:31:22.162Z,102254.00
2023-02-28T09:34:24.612Z,102239.47
2023-02-28T09:37:32.133Z,102241.31
2023-02-28T09:40:37.940Z,102250.56
2023-02-28T09:43:43.066Z,102248.34
2023-02-28T09:46:48.978Z,102222.09
2023-02-28T09:49:51.714Z,102239.84
2023-02-28T09:52:55.181Z,102242.97
2023-02-28T09:56:00.749Z,102245.25
2023-02-28T09:59:07.084Z,102239.22
2023-02-28T10:02:12.691Z,102244.19
2023-02-28T10:05:18.301Z,102243.69
2023-02-28T10:08:46.255Z,102239.50
2023-02-28T10:11:48.957Z,102237.66
2023-02-28T10:14:53.636Z,102234.66
2023-02-28T10:18:08.565Z,102231.47
2023-02-28T10:21:21.257Z,102226.63
2023-02-28T10:24:37.456Z,102223.44
2023-02-28T10:27:39.880Z,102222.22
2023-02-28T10:30:45.258Z,102219.06
2023-02-28T10:33:47.911Z,102211.69
2023-02-28T10:36:51.159Z,102216.38
2023-02-28T10:39:53.561Z,102186.31
2023-02-28T10:43:05.793Z,102218.84
2023-02-28T10:46:10.971Z,102215.38
2023-02-28T10:49:23.466Z,102202.25
2023-02-28T10:52:38.468Z,102209.59
2023-02-28T10:55:40.842Z,102207.31
2023-02-28T10:58:58.340Z,102197.19
2023-02-28T11:02:01.048Z,102191.97
2023-02-28T11:05:03.618Z,102197.06
2023-02-28T11:08:15.952Z,102196.13
2023-02-28T11:11:19.333Z,102191.38
2023-02-28T11:14:23.800Z,102188.59
2023-02-28T11:17:28.990Z,102192.75
2023-02-28T11:20:34.344Z,102193.22
2023-02-28T11:23:38.720Z,102176.81
2023-02-28T11:26:46.632Z,102174.63
2023-02-28T11:29:49.335Z,102180.38
2023-02-28T11:32:51.980Z,102173.41
2023-02-28T11:35:54.931Z,102173.00
2023-02-28T11:39:11.919Z,102148.75
2023-02-28T11:42:19.913Z,102179.16
2023-02-28T11:45:43.941Z,102167.38
2023-02-28T11:48:55.228Z,102177.41
2023-02-28T11:52:15.966Z,102170.53
2023-02-28T11:55:21.035Z,102167.72
2023-02-28T11:58:33.007Z,102163.22
2023-02-28T12:01:48.477Z,102162.09
2023-02-28T12:05:14.814Z,102168.53
2023-02-28T12:08:35.875Z,102164.72
2023-02-28T12:11:54.996Z,102156.41
2023-02-28T12:15:51.255Z,102153.47
2023-02-28T12:19:24.234Z,102146.59
2023-02-28T12:22:31.392Z,102147.41
2023-02-28T12:26:05.693Z,102140.72
2023-02-28T12:29:30.655Z,102126.84
2023-02-28T12:32:40.046Z,102126.31
2023-02-28T12:35:56.802Z,102114.94
2023-02-28T12:39:11.632Z,102107.66
2023-02-28T12:42:27.204Z,102082.19
2023-02-28T12:45:44.086Z,102094.03
2023-02-28T12:48:49.973Z,102092.13
2023-02-28T12:51:52.669Z,102092.84
2023-02-28T12:55:00.033Z,102088.91
2023-02-28T12:58:31.405Z,102085.50
2023-02-28T13:01:44.761Z,102084.50
2023-02-28T13:05:24.433Z,102085.84
2023-02-28T13:08:57.567Z,102094.16
2023-02-28T13:12:00.612Z,102078.78
2023-02-28T13:15:06.328Z,102079.91
2023-02-28T13:18:38.413Z,102081.53
2023-02-28T13:21:45.696Z,102074.50
2023-02-28T13:24:55.337Z,102066.03
2023-02-28T13:27:58.161Z,102070.91
2023-02-28T13:31:01.389Z,102063.69
2023-02-28T13:34:13.079Z,102065.16
2023-02-28T13:37:21.396Z,102064.81
2023-02-28T13:40:38.093Z,102058.91
2023-02-28T13:44:18.561Z,102051.38
2023-02-28T13:47:26.112Z,102056.59
2023-02-28T13:50:28.428Z,102064.91
2023-02-28T13:54:09.032Z,102064.81
2023-02-28T13:57:17.085Z,102057.41
2023-02-28T14:00:37.857Z,102064.69
2023-02-28T14:04:33.571Z,102048.22
2023-02-28T14:07:45.578Z,102035.31
2023-02-28T14:10:51.274Z,102043.63
2023-02-28T14:13:53.734Z,102037.84
2023-02-28T14:16:56.329Z,102033.63
2023-02-28T14:19:59.587Z,102033.34
2023-02-28T14:23:06.726Z,102032.88
2023-02-28T14:26:31.087Z,102030.28
2023-02-28T14:29:52.302Z,102032.59
2023-02-28T14:33:13.073Z,102027.13
2023-02-28T14:36:35.037Z,102039.91
2023-02-28T14:39:38.040Z,102023.09
2023-02-28T14:42:44.938Z,102020.78
2023-02-28T14:45:51.937Z,102018.25
2023-02-28T14:48:54.312Z,102001.72
2023-02-28T14:52:17.041Z,102003.53
2023-02-28T14:55:29.765Z,102011.59
2023-02-28T14:58:34.534Z,102002.38
2023-02-28T15:01:37.067Z,102020.63
2023-02-28T15:04:39.571Z,101992.53
2023-02-28T15:07:41.994Z,102001.34
2023-02-28T15:11:13.397Z,102007.81
2023-02-28T15:14:20.164Z,102006.84
2023-02-28T15:17:24.992Z,102001.41
2023-02-28T15:20:28.118Z,101991.34
2023-02-28T15:23:32.322Z,102002.31
2023-02-28T15:26:35.425Z,102011.56
2023-02-28T15:29:58.997Z,102002.47
2023-02-28T15:33:22.531Z,102003.03
2023-02-28T15:36:32.937Z,101995.50
2023-02-28T15:39:43.762Z,101993.63
2023-02-28T15:43:01.307Z,101991.22
2023-02-28T15:46:11.904Z,102000.66
2023-02-28T15:49:21.349Z,101995.91
2023-02-28T15:52:30.466Z,101998.03
2023-02-28T15:55:32.900Z,101994.94
2023-02-28T15:58:37.791Z,101999.84
2023-02-28T16:01:40.570Z,102001.75
2023-02-28T16:05:11.809Z,102007.91
2023-02-28T16:08:17.039Z,102013.22
2023-02-28T16:11:20.853Z,102010.22
2023-02-28T16:14:33.577Z,102012.94
2023-02-28T16:17:39.524Z,102008.69
2023-02-28T16:20:42.598Z,102011.31
2023-02-28T16:23:44.926Z,102018.28
2023-02-28T16:26:49.510Z,102010.56
2023-02-28T16:29:51.916Z,102014.38
2023-02-28T16:32:55.519Z,102021.16
2023-02-28T16:35:57.947Z,102009.41
2023-02-28T16:39:00.464Z,102000.59
2023-02-28T16:42:03.096Z,102001.94
2023-02-28T16:45:05.847Z,102007.81
2023-02-28T16:48:13.098Z,102003.44
2023-02-28T16:51:17.105Z,101991.38
2023-02-28T16:54:19.489Z,102003.09
2023-02-28T16:57:24.900Z,101983.50
2023-02-28T17:00:29.449Z,101996.25
2023-02-28T17:03:33.662Z,101991.41
2023-02-28T17:06:36.484Z,101985.34
2023-02-28T17:09:42.609Z,101966.25
2023-02-28T17:12:46.455Z,101986.00
2023-02-28T17:15:49.604Z,101985.31
2023-02-28T17:18:52.568Z,101962.53
2023-02-28T17:21:55.016Z,101976.78
2023-02-28T17:25:01.754Z,101976.78
2023-02-28T17:28:04.429Z,101964.19
2023-02-28T17:31:06.856Z,101958.19
2023-02-28T17:34:09.486Z,101959.84
2023-02-28T17:37:11.847Z,101964.69
2023-02-28T17:40:20.093Z,101961.19
2023-02-28T17:43:22.493Z,101966.91
2023-02-28T17:46:26.228Z,101969.59
2023-02-28T17:49:28.815Z,101965.88
2023-02-28T17:52:32.050Z,101966.56
2023-02-28T17:55:35.561Z,101968.38
2023-02-28T17:58:38.148Z,101970.59
2023-02-28T18:01:41.019Z,101960.47
2023-02-28T18:04:43.830Z,101966.53
2023-02-28T18:07:46.369Z,101965.81
2023-02-28T18:10:48.936Z,101955.78
2023-02-28T18:13:53.785Z,101953.72
2023-02-28T18:16:57.673Z,101957.44
2023-02-28T18:20:00.430Z,101954.22
2023-02-28T18:23:03.294Z,101957.56
2023-02-28T18:26:09.276Z,101960.81
2023-02-28T18:29:24.433Z,101959.19
2023-02-28T18:32:27.598Z,101959.31
2023-02-28T18:35:37.429Z,101962.19
2023-02-28T18:38:40.463Z,101953.47
2023-02-28T18:41:42.929Z,101961.84
2023-02-28T18:44:45.456Z,101971.22
2023-02-28T18:47:48.184Z,101947.34
2023-02-28T18:50:51.817Z,101968.44
2023-02-28T18:53:54.395Z,101975.28
2023-02-28T18:56:56.798Z,101969.78
2023-02-28T18:59:59.169Z,101974.47
2023-02-28T19:03:01.576Z,101973.97
2023-02-28T19:06:04.060Z,101975.16
2023-02-28T19:09:06.917Z,101975.16
2023-02-28T19:12:09.548Z,101974.47
2023-02-28T19:15:12.927Z,101978.19
2023-02-28T19:18:15.486Z,101984.16
2023-02-28T19:21:19.705Z,101983.44
2023-02-28T19:24:22.022Z,101999.06
2023-02-28T19:27:24.606Z,102005.72
2023-02-28T19:30:26.942Z,102008.34
2023-02-28T19:33:29.923Z,102001.75
2023-02-28T19:36:32.348Z,102007.25
2023-02-28T19:39:41.210Z,101995.09
2023-02-28T19:42:43.731Z,101994.44
2023-02-28T19:45:46.480Z,101985.22
2023-02-28T19:48:48.990Z,101993.03
2023-02-28T19:51:51.292Z,101985.41
2023-02-28T19:54:53.631Z,101982.66
2023-02-28T19:57:56.011Z,101968.97
2023-02-28T20:00:58.546Z,101973.47
2023-02-28T20:04:02.093Z,101990.81
2023-02-28T20:07:04.675Z,101992.53
2023-02-28T20:10:07.631Z,101995.91
2023-02-28T20:13:09.949Z,101996.19
2023-02-28T20:16:14.187Z,101991.50
2023-02-28T20:19:17.351Z,102001.09
2023-02-28T20:22:19.629Z,101997.38
2023-02-28T20:25:22.016Z,102010.59
2023-02-28T20:28:24.495Z,101994.19
2023-02-28T20:31:28.790Z,101991.00
2023-02-28T20:34:31.117Z,101976.34
2023-02-28T20:37:33.420Z,101987.00
2023-02-28T20:40:35.712Z,101987.63
2023-02-28T20:43:38.014Z,101987.63
2023-02-28T20:46:41.730Z,101997.31
2023-02-28T20:49:44.047Z,101999.34
2023-02-28T20:52:46.373Z,102006.72
2023-02-28T20:56:02.725Z,102010.41
2023-02-28T20:59:05.657Z,101996.75
2023-02-28T21:02:08.433Z,101999.72
2023-02-28T21:05:10.909Z,101977.47
2023-02-28T21:08:13.237Z,101988.63
2023-02-28T21:11:18.176Z,101971.50
2023-02-28T21:14:20.534Z,101978.19
2023-02-28T21:17:22.966Z,101982.06
2023-02-28T21:20:25.335Z,101962.75
2023-02-28T21:23:27.733Z,101975.22
2023-02-28T21:26:30.522Z,101985.47
2023-02-28T21:29:33.021Z,101984.84
2023-02-28T21:32:35.492Z,101985.66
2023-02-28T21:35:37.871Z,101982.25
2023-02-28T21:38:41.032Z,101985.78
2023-02-28T21:41:43.722Z,101987.56
2023-02-28T21:44:46.200Z,101985.25
2023-02-28T21:47:48.602Z,101970.66
2023-02-28T21:51:12.206Z,101964.75
2023-02-28T21:54:15.134Z,101942.91
2023-02-28T21:57:17.523Z,101964.38
2023-02-28T22:00:20.639Z,101953.97
2023-02-28T22:03:22.911Z,101958.75
2023-02-28T22:06:30.802Z,101944.81
2023-02-28T22:09:33.535Z,101946.50
2023-02-28T22:12:35.926Z,101950.47
2023-02-28T22:15:38.445Z,101934.66
2023-02-28T22:18:41.271Z,101936.16
2023-02-28T22:21:45.005Z,101949.25
2023-02-28T22:24:47.465Z,101943.53
2023-02-28T22:27:49.853Z,101944.16
2023-02-28T22:30:52.196Z,101947.72
2023-02-28T22:33:57.219Z,101935.44
2023-02-28T22:36:59.684Z,101942.06
2023-02-28T22:40:02.123Z,101942.59
2023-02-28T22:43:06.076Z,101922.22
2023-02-28T22:46:10.898Z,101941.50
2023-02-28T22:49:13.357Z,101929.78
2023-02-28T22:52:15.896Z,101950.78
2023-02-28T22:55:18.217Z,101934.50
2023-02-28T22:58:20.582Z,101957.28
2023-02-28T23:01:26.309Z,101953.97
2023-02-28T23:04:28.838Z,101947.19
2023-02-28T23:07:31.281Z,101932.81
2023-02-28T23:10:33.929Z,101928.81
2023-02-28T23:13:36.901Z,101937.03
2023-02-28T23:16:42.442Z,101936.84
2023-02-28T23:19:44.868Z,101928.22
2023-02-28T23:22:50.637Z,101932.09
2023-02-28T23:25:53.496Z,101927.13
2023-02-28T23:28:55.877Z,101928.97
2023-02-28T23:31:58.511Z,101942.97
2023-02-28T23:35:00.961Z,101946.63
2023-02-28T23:38:03.338Z,101937.22
2023-02-28T23:41:12.735Z,101937.03
2023-02-28T23:44:17.167Z,101940.53
2023-02-28T23:47:19.623Z,101938.38
2023-02-28T23:50:21.909Z,101942.00
2023-02-28T23:53:25.185Z,101942.00
2023-02-28T23:56:27.492Z,101939.81
2023-02-28T23:59:29.906Z,101935.31
